sensor_id;sensor_type;location;lat;lon;timestamp;P1;durP1;ratioP1;P2;durP2;ratioP2
7747;SDS011;3918;42.564;23.164;2023-02-23T00:01:32;5.25;;;3.17;;
7747;SDS011;3918;42.564;23.164;2023-02-23T00:04:00;5.72;;;3.10;;
7747;SDS011;3918;42.564;23.164;2023-02-23T00:06:27;6.03;;;3.10;;
7747;SDS011;3918;42.564;23.164;2023-02-23T00:08:55;4.03;;;2.83;;
7747;SDS011;3918;42.564;23.164;2023-02-23T00:11:22;3.92;;;3.28;;
7747;SDS011;3918;42.564;23.164;2023-02-23T00:13:51;4.80;;;3.00;;
7747;SDS011;3918;42.564;23.164;2023-02-23T00:16:18;5.40;;;3.45;;
7747;SDS011;3918;42.564;23.164;2023-02-23T00:18:48;4.03;;;2.60;;
7747;SDS011;3918;42.564;23.164;2023-02-23T00:21:19;4.82;;;3.00;;
7747;SDS011;3918;42.564;23.164;2023-02-23T00:23:48;3.95;;;2.95;;
7747;SDS011;3918;42.564;23.164;2023-02-23T00:26:16;4.68;;;2.67;;
7747;SDS011;3918;42.564;23.164;2023-02-23T00:28:45;4.18;;;2.92;;
7747;SDS011;3918;42.564;23.164;2023-02-23T00:31:13;5.22;;;2.90;;
7747;SDS011;3918;42.564;23.164;2023-02-23T00:33:40;4.82;;;3.30;;
7747;SDS011;3918;42.564;23.164;2023-02-23T00:36:08;4.10;;;3.13;;
7747;SDS011;3918;42.564;23.164;2023-02-23T00:38:37;4.30;;;3.30;;
7747;SDS011;3918;42.564;23.164;2023-02-23T00:41:05;4.82;;;3.45;;
7747;SDS011;3918;42.564;23.164;2023-02-23T00:43:34;5.20;;;3.40;;
7747;SDS011;3918;42.564;23.164;2023-02-23T00:46:02;4.30;;;3.15;;
7747;SDS011;3918;42.564;23.164;2023-02-23T00:48:31;6.25;;;3.63;;
7747;SDS011;3918;42.564;23.164;2023-02-23T00:50:58;3.90;;;3.13;;
7747;SDS011;3918;42.564;23.164;2023-02-23T00:53:25;4.70;;;2.63;;
7747;SDS011;3918;42.564;23.164;2023-02-23T00:55:54;3.50;;;2.92;;
7747;SDS011;3918;42.564;23.164;2023-02-23T00:58:21;3.92;;;2.95;;
7747;SDS011;3918;42.564;23.164;2023-02-23T01:00:48;3.83;;;2.90;;
7747;SDS011;3918;42.564;23.164;2023-02-23T01:03:15;5.00;;;3.00;;
7747;SDS011;3918;42.564;23.164;2023-02-23T01:05:42;3.42;;;2.70;;
7747;SDS011;3918;42.564;23.164;2023-02-23T01:08:10;3.17;;;2.75;;
7747;SDS011;3918;42.564;23.164;2023-02-23T01:10:39;4.25;;;2.88;;
7747;SDS011;3918;42.564;23.164;2023-02-23T01:13:09;4.40;;;2.80;;
7747;SDS011;3918;42.564;23.164;2023-02-23T01:15:40;4.57;;;2.90;;
7747;SDS011;3918;42.564;23.164;2023-02-23T01:18:08;8.30;;;3.00;;
7747;SDS011;3918;42.564;23.164;2023-02-23T01:20:35;6.68;;;3.53;;
7747;SDS011;3918;42.564;23.164;2023-02-23T01:23:05;5.68;;;2.90;;
7747;SDS011;3918;42.564;23.164;2023-02-23T01:25:33;6.03;;;2.88;;
7747;SDS011;3918;42.564;23.164;2023-02-23T01:28:00;3.72;;;3.10;;
7747;SDS011;3918;42.564;23.164;2023-02-23T01:30:29;5.50;;;3.00;;
7747;SDS011;3918;42.564;23.164;2023-02-23T01:32:56;3.17;;;2.55;;
7747;SDS011;3918;42.564;23.164;2023-02-23T01:35:23;5.25;;;3.00;;
7747;SDS011;3918;42.564;23.164;2023-02-23T01:37:49;3.30;;;2.83;;
7747;SDS011;3918;42.564;23.164;2023-02-23T01:40:17;3.63;;;3.00;;
7747;SDS011;3918;42.564;23.164;2023-02-23T01:42:53;4.05;;;2.90;;
7747;SDS011;3918;42.564;23.164;2023-02-23T01:45:26;4.47;;;3.10;;
7747;SDS011;3918;42.564;23.164;2023-02-23T01:47:57;4.55;;;3.10;;
7747;SDS011;3918;42.564;23.164;2023-02-23T01:50:27;4.95;;;2.90;;
7747;SDS011;3918;42.564;23.164;2023-02-23T01:52:58;3.33;;;2.72;;
7747;SDS011;3918;42.564;23.164;2023-02-23T01:55:25;4.10;;;3.20;;
7747;SDS011;3918;42.564;23.164;2023-02-23T01:57:55;3.67;;;2.92;;
7747;SDS011;3918;42.564;23.164;2023-02-23T02:00:28;4.15;;;3.17;;
7747;SDS011;3918;42.564;23.164;2023-02-23T02:03:00;5.18;;;3.45;;
7747;SDS011;3918;42.564;23.164;2023-02-23T02:05:36;5.20;;;3.20;;
7747;SDS011;3918;42.564;23.164;2023-02-23T02:08:05;4.90;;;3.33;;
7747;SDS011;3918;42.564;23.164;2023-02-23T02:10:34;4.75;;;3.47;;
7747;SDS011;3918;42.564;23.164;2023-02-23T02:13:10;3.63;;;3.30;;
7747;SDS011;3918;42.564;23.164;2023-02-23T02:15:46;3.40;;;2.95;;
7747;SDS011;3918;42.564;23.164;2023-02-23T02:18:32;4.07;;;2.80;;
7747;SDS011;3918;42.564;23.164;2023-02-23T02:21:13;3.95;;;3.05;;
7747;SDS011;3918;42.564;23.164;2023-02-23T02:24:12;4.95;;;3.05;;
7747;SDS011;3918;42.564;23.164;2023-02-23T02:27:09;2.63;;;2.42;;
7747;SDS011;3918;42.564;23.164;2023-02-23T02:29:58;3.10;;;2.80;;
7747;SDS011;3918;42.564;23.164;2023-02-23T02:33:01;3.97;;;2.97;;
7747;SDS011;3918;42.564;23.164;2023-02-23T02:36:03;6.40;;;3.08;;
7747;SDS011;3918;42.564;23.164;2023-02-23T02:38:55;6.15;;;3.33;;
7747;SDS011;3918;42.564;23.164;2023-02-23T02:41:35;4.25;;;2.90;;
7747;SDS011;3918;42.564;23.164;2023-02-23T02:44:16;3.60;;;2.90;;
7747;SDS011;3918;42.564;23.164;2023-02-23T02:46:57;4.50;;;3.40;;
7747;SDS011;3918;42.564;23.164;2023-02-23T02:49:30;3.42;;;2.97;;
7747;SDS011;3918;42.564;23.164;2023-02-23T02:52:02;3.67;;;3.13;;
7747;SDS011;3918;42.564;23.164;2023-02-23T02:54:36;6.53;;;3.08;;
7747;SDS011;3918;42.564;23.164;2023-02-23T02:57:05;6.60;;;3.65;;
7747;SDS011;3918;42.564;23.164;2023-02-23T02:59:41;6.97;;;3.63;;
7747;SDS011;3918;42.564;23.164;2023-02-23T03:02:27;4.47;;;3.38;;
7747;SDS011;3918;42.564;23.164;2023-02-23T03:05:12;5.35;;;3.33;;
7747;SDS011;3918;42.564;23.164;2023-02-23T03:07:59;4.22;;;2.97;;
7747;SDS011;3918;42.564;23.164;2023-02-23T03:10:57;10.00;;;3.40;;
7747;SDS011;3918;42.564;23.164;2023-02-23T03:13:47;4.55;;;3.10;;
7747;SDS011;3918;42.564;23.164;2023-02-23T03:16:47;4.22;;;3.28;;
7747;SDS011;3918;42.564;23.164;2023-02-23T03:19:41;5.60;;;3.58;;
7747;SDS011;3918;42.564;23.164;2023-02-23T03:22:33;3.90;;;2.88;;
7747;SDS011;3918;42.564;23.164;2023-02-23T03:25:26;5.88;;;3.70;;
7747;SDS011;3918;42.564;23.164;2023-02-23T03:28:17;5.00;;;3.55;;
7747;SDS011;3918;42.564;23.164;2023-02-23T03:31:05;5.20;;;3.00;;
7747;SDS011;3918;42.564;23.164;2023-02-23T03:33:59;5.53;;;3.67;;
7747;SDS011;3918;42.564;23.164;2023-02-23T03:36:54;4.68;;;3.10;;
7747;SDS011;3918;42.564;23.164;2023-02-23T03:39:46;5.40;;;3.13;;
7747;SDS011;3918;42.564;23.164;2023-02-23T03:42:36;7.25;;;2.92;;
7747;SDS011;3918;42.564;23.164;2023-02-23T03:45:25;6.03;;;3.22;;
7747;SDS011;3918;42.564;23.164;2023-02-23T03:48:11;4.78;;;2.70;;
7747;SDS011;3918;42.564;23.164;2023-02-23T03:51:00;4.05;;;3.20;;
7747;SDS011;3918;42.564;23.164;2023-02-23T03:53:49;5.32;;;3.03;;
7747;SDS011;3918;42.564;23.164;2023-02-23T03:56:38;5.05;;;3.17;;
7747;SDS011;3918;42.564;23.164;2023-02-23T03:59:28;7.03;;;3.00;;
7747;SDS011;3918;42.564;23.164;2023-02-23T04:02:16;3.70;;;2.88;;
7747;SDS011;3918;42.564;23.164;2023-02-23T04:05:04;3.70;;;3.08;;
7747;SDS011;3918;42.564;23.164;2023-02-23T04:07:52;7.57;;;3.58;;
7747;SDS011;3918;42.564;23.164;2023-02-23T04:10:38;5.78;;;3.30;;
7747;SDS011;3918;42.564;23.164;2023-02-23T04:13:29;6.63;;;3.72;;
7747;SDS011;3918;42.564;23.164;2023-02-23T04:16:00;4.60;;;3.38;;
7747;SDS011;3918;42.564;23.164;2023-02-23T04:18:31;6.60;;;3.55;;
7747;SDS011;3918;42.564;23.164;2023-02-23T04:20:59;5.47;;;3.58;;
7747;SDS011;3918;42.564;23.164;2023-02-23T04:23:26;5.57;;;3.90;;
7747;SDS011;3918;42.564;23.164;2023-02-23T04:25:54;5.07;;;3.47;;
7747;SDS011;3918;42.564;23.164;2023-02-23T04:28:22;5.53;;;3.85;;
7747;SDS011;3918;42.564;23.164;2023-02-23T04:30:50;6.57;;;3.65;;
7747;SDS011;3918;42.564;23.164;2023-02-23T04:33:17;5.43;;;4.07;;
7747;SDS011;3918;42.564;23.164;2023-02-23T04:35:47;6.75;;;3.67;;
7747;SDS011;3918;42.564;23.164;2023-02-23T04:38:14;4.82;;;3.58;;
7747;SDS011;3918;42.564;23.164;2023-02-23T04:40:41;5.68;;;4.10;;
7747;SDS011;3918;42.564;23.164;2023-02-23T04:43:08;6.13;;;3.45;;
7747;SDS011;3918;42.564;23.164;2023-02-23T04:45:37;6.85;;;3.08;;
7747;SDS011;3918;42.564;23.164;2023-02-23T04:48:04;5.90;;;3.63;;
7747;SDS011;3918;42.564;23.164;2023-02-23T04:50:31;5.72;;;3.08;;
7747;SDS011;3918;42.564;23.164;2023-02-23T04:53:00;5.85;;;3.50;;
7747;SDS011;3918;42.564;23.164;2023-02-23T04:55:27;4.50;;;3.17;;
7747;SDS011;3918;42.564;23.164;2023-02-23T04:57:55;6.18;;;3.42;;
7747;SDS011;3918;42.564;23.164;2023-02-23T05:00:23;5.57;;;3.60;;
7747;SDS011;3918;42.564;23.164;2023-02-23T05:02:50;6.72;;;3.85;;
7747;SDS011;3918;42.564;23.164;2023-02-23T05:05:17;4.75;;;3.42;;
7747;SDS011;3918;42.564;23.164;2023-02-23T05:07:45;7.38;;;3.78;;
7747;SDS011;3918;42.564;23.164;2023-02-23T05:10:13;3.70;;;3.10;;
7747;SDS011;3918;42.564;23.164;2023-02-23T05:12:40;4.20;;;3.20;;
7747;SDS011;3918;42.564;23.164;2023-02-23T05:15:07;5.15;;;3.20;;
7747;SDS011;3918;42.564;23.164;2023-02-23T05:17:36;5.65;;;3.78;;
7747;SDS011;3918;42.564;23.164;2023-02-23T05:20:05;5.20;;;3.92;;
7747;SDS011;3918;42.564;23.164;2023-02-23T05:22:32;5.05;;;3.70;;
7747;SDS011;3918;42.564;23.164;2023-02-23T05:24:59;5.60;;;3.55;;
7747;SDS011;3918;42.564;23.164;2023-02-23T05:27:29;4.15;;;3.40;;
7747;SDS011;3918;42.564;23.164;2023-02-23T05:29:58;5.30;;;3.30;;
7747;SDS011;3918;42.564;23.164;2023-02-23T05:32:25;4.95;;;3.33;;
7747;SDS011;3918;42.564;23.164;2023-02-23T05:34:52;6.75;;;3.92;;
7747;SDS011;3918;42.564;23.164;2023-02-23T05:37:18;4.70;;;3.40;;
7747;SDS011;3918;42.564;23.164;2023-02-23T05:39:45;4.97;;;3.50;;
7747;SDS011;3918;42.564;23.164;2023-02-23T05:42:12;5.43;;;3.15;;
7747;SDS011;3918;42.564;23.164;2023-02-23T05:44:41;6.55;;;3.65;;
7747;SDS011;3918;42.564;23.164;2023-02-23T05:47:07;3.97;;;3.20;;
7747;SDS011;3918;42.564;23.164;2023-02-23T05:49:34;3.83;;;3.05;;
7747;SDS011;3918;42.564;23.164;2023-02-23T05:52:02;5.45;;;3.63;;
7747;SDS011;3918;42.564;23.164;2023-02-23T05:54:29;7.63;;;4.78;;
7747;SDS011;3918;42.564;23.164;2023-02-23T05:56:56;7.43;;;4.78;;
7747;SDS011;3918;42.564;23.164;2023-02-23T05:59:23;5.15;;;4.07;;
7747;SDS011;3918;42.564;23.164;2023-02-23T06:01:51;5.05;;;3.80;;
7747;SDS011;3918;42.564;23.164;2023-02-23T06:04:18;4.45;;;3.40;;
7747;SDS011;3918;42.564;23.164;2023-02-23T06:06:47;5.47;;;3.40;;
7747;SDS011;3918;42.564;23.164;2023-02-23T06:09:14;3.65;;;3.17;;
7747;SDS011;3918;42.564;23.164;2023-02-23T06:11:41;4.80;;;3.55;;
7747;SDS011;3918;42.564;23.164;2023-02-23T06:14:08;2.83;;;2.63;;
7747;SDS011;3918;42.564;23.164;2023-02-23T06:16:35;7.60;;;3.28;;
7747;SDS011;3918;42.564;23.164;2023-02-23T06:19:03;6.25;;;4.53;;
7747;SDS011;3918;42.564;23.164;2023-02-23T06:21:30;10.00;;;6.32;;
7747;SDS011;3918;42.564;23.164;2023-02-23T06:23:57;10.27;;;6.88;;
7747;SDS011;3918;42.564;23.164;2023-02-23T06:26:25;12.90;;;7.65;;
7747;SDS011;3918;42.564;23.164;2023-02-23T06:28:52;12.95;;;7.13;;
7747;SDS011;3918;42.564;23.164;2023-02-23T06:31:18;5.43;;;4.63;;
7747;SDS011;3918;42.564;23.164;2023-02-23T06:33:45;5.63;;;3.88;;
7747;SDS011;3918;42.564;23.164;2023-02-23T06:36:14;4.60;;;3.70;;
7747;SDS011;3918;42.564;23.164;2023-02-23T06:38:40;4.85;;;3.92;;
7747;SDS011;3918;42.564;23.164;2023-02-23T06:41:09;6.80;;;3.72;;
7747;SDS011;3918;42.564;23.164;2023-02-23T06:43:37;4.50;;;3.78;;
7747;SDS011;3918;42.564;23.164;2023-02-23T06:46:04;4.95;;;4.18;;
7747;SDS011;3918;42.564;23.164;2023-02-23T06:48:30;6.22;;;4.20;;
7747;SDS011;3918;42.564;23.164;2023-02-23T06:50:57;4.70;;;3.85;;
7747;SDS011;3918;42.564;23.164;2023-02-23T06:53:26;6.13;;;4.68;;
7747;SDS011;3918;42.564;23.164;2023-02-23T06:55:52;8.18;;;5.95;;
7747;SDS011;3918;42.564;23.164;2023-02-23T06:58:19;8.65;;;6.57;;
7747;SDS011;3918;42.564;23.164;2023-02-23T07:00:46;9.52;;;6.22;;
7747;SDS011;3918;42.564;23.164;2023-02-23T07:03:13;9.20;;;6.88;;
7747;SDS011;3918;42.564;23.164;2023-02-23T07:05:39;9.43;;;7.00;;
7747;SDS011;3918;42.564;23.164;2023-02-23T07:08:07;9.05;;;6.68;;
7747;SDS011;3918;42.564;23.164;2023-02-23T07:10:35;8.63;;;6.15;;
7747;SDS011;3918;42.564;23.164;2023-02-23T07:13:05;6.45;;;5.03;;
7747;SDS011;3918;42.564;23.164;2023-02-23T07:15:32;8.43;;;5.63;;
7747;SDS011;3918;42.564;23.164;2023-02-23T07:18:00;7.00;;;4.10;;
7747;SDS011;3918;42.564;23.164;2023-02-23T07:20:27;9.43;;;3.97;;
7747;SDS011;3918;42.564;23.164;2023-02-23T07:22:55;3.90;;;3.55;;
7747;SDS011;3918;42.564;23.164;2023-02-23T07:25:22;6.38;;;4.63;;
7747;SDS011;3918;42.564;23.164;2023-02-23T07:27:50;9.18;;;4.07;;
7747;SDS011;3918;42.564;23.164;2023-02-23T07:30:18;6.47;;;4.65;;
7747;SDS011;3918;42.564;23.164;2023-02-23T07:32:50;27.27;;;5.35;;
7747;SDS011;3918;42.564;23.164;2023-02-23T07:35:17;14.63;;;6.32;;
7747;SDS011;3918;42.564;23.164;2023-02-23T07:37:44;27.50;;;9.32;;
7747;SDS011;3918;42.564;23.164;2023-02-23T07:40:11;9.15;;;5.68;;
7747;SDS011;3918;42.564;23.164;2023-02-23T07:42:39;16.33;;;7.90;;
7747;SDS011;3918;42.564;23.164;2023-02-23T07:45:08;11.23;;;7.13;;
7747;SDS011;3918;42.564;23.164;2023-02-23T07:47:35;9.93;;;6.85;;
7747;SDS011;3918;42.564;23.164;2023-02-23T07:50:03;6.30;;;5.40;;
7747;SDS011;3918;42.564;23.164;2023-02-23T07:52:34;52.42;;;11.20;;
7747;SDS011;3918;42.564;23.164;2023-02-23T07:55:02;6.15;;;5.55;;
7747;SDS011;3918;42.564;23.164;2023-02-23T07:57:30;8.38;;;5.70;;
7747;SDS011;3918;42.564;23.164;2023-02-23T07:59:57;12.32;;;5.70;;
7747;SDS011;3918;42.564;23.164;2023-02-23T08:02:25;5.97;;;4.93;;
7747;SDS011;3918;42.564;23.164;2023-02-23T08:04:53;6.60;;;5.82;;
7747;SDS011;3918;42.564;23.164;2023-02-23T08:07:20;8.95;;;5.32;;
7747;SDS011;3918;42.564;23.164;2023-02-23T08:09:48;5.38;;;4.68;;
7747;SDS011;3918;42.564;23.164;2023-02-23T08:12:15;17.38;;;4.85;;
7747;SDS011;3918;42.564;23.164;2023-02-23T08:14:42;8.18;;;4.57;;
7747;SDS011;3918;42.564;23.164;2023-02-23T08:17:09;5.20;;;4.55;;
7747;SDS011;3918;42.564;23.164;2023-02-23T08:19:37;13.48;;;5.40;;
7747;SDS011;3918;42.564;23.164;2023-02-23T08:22:04;11.65;;;5.03;;
7747;SDS011;3918;42.564;23.164;2023-02-23T08:24:31;7.55;;;4.55;;
7747;SDS011;3918;42.564;23.164;2023-02-23T08:26:58;6.90;;;5.22;;
7747;SDS011;3918;42.564;23.164;2023-02-23T08:29:26;8.80;;;5.75;;
7747;SDS011;3918;42.564;23.164;2023-02-23T08:31:53;8.20;;;5.70;;
7747;SDS011;3918;42.564;23.164;2023-02-23T08:34:21;10.32;;;5.25;;
7747;SDS011;3918;42.564;23.164;2023-02-23T08:36:49;21.25;;;5.68;;
7747;SDS011;3918;42.564;23.164;2023-02-23T08:39:18;7.20;;;5.30;;
7747;SDS011;3918;42.564;23.164;2023-02-23T08:41:45;4.95;;;4.45;;
7747;SDS011;3918;42.564;23.164;2023-02-23T08:44:11;7.43;;;4.50;;
7747;SDS011;3918;42.564;23.164;2023-02-23T08:46:38;8.10;;;5.80;;
7747;SDS011;3918;42.564;23.164;2023-02-23T08:49:05;9.77;;;5.25;;
7747;SDS011;3918;42.564;23.164;2023-02-23T08:51:35;6.53;;;4.90;;
7747;SDS011;3918;42.564;23.164;2023-02-23T08:54:03;8.90;;;4.55;;
7747;SDS011;3918;42.564;23.164;2023-02-23T08:56:36;10.00;;;4.78;;
7747;SDS011;3918;42.564;23.164;2023-02-23T08:59:03;10.15;;;4.90;;
7747;SDS011;3918;42.564;23.164;2023-02-23T09:01:30;10.77;;;4.80;;
7747;SDS011;3918;42.564;23.164;2023-02-23T09:03:57;9.50;;;5.30;;
7747;SDS011;3918;42.564;23.164;2023-02-23T09:06:25;9.32;;;5.70;;
7747;SDS011;3918;42.564;23.164;2023-02-23T09:08:53;9.13;;;5.25;;
7747;SDS011;3918;42.564;23.164;2023-02-23T09:11:22;7.68;;;5.05;;
7747;SDS011;3918;42.564;23.164;2023-02-23T09:13:49;10.02;;;5.63;;
7747;SDS011;3918;42.564;23.164;2023-02-23T09:16:16;18.40;;;6.05;;
7747;SDS011;3918;42.564;23.164;2023-02-23T09:18:43;10.80;;;6.13;;
7747;SDS011;3918;42.564;23.164;2023-02-23T09:21:13;14.05;;;5.68;;
7747;SDS011;3918;42.564;23.164;2023-02-23T09:23:43;9.35;;;5.25;;
7747;SDS011;3918;42.564;23.164;2023-02-23T09:26:12;8.77;;;4.78;;
7747;SDS011;3918;42.564;23.164;2023-02-23T09:28:40;9.43;;;5.50;;
7747;SDS011;3918;42.564;23.164;2023-02-23T09:31:08;10.57;;;5.15;;
7747;SDS011;3918;42.564;23.164;2023-02-23T09:33:38;11.25;;;5.40;;
7747;SDS011;3918;42.564;23.164;2023-02-23T09:36:05;8.05;;;4.97;;
7747;SDS011;3918;42.564;23.164;2023-02-23T09:38:33;8.82;;;5.22;;
7747;SDS011;3918;42.564;23.164;2023-02-23T09:41:00;11.52;;;4.95;;
7747;SDS011;3918;42.564;23.164;2023-02-23T09:43:28;12.10;;;4.88;;
7747;SDS011;3918;42.564;23.164;2023-02-23T09:46:01;10.15;;;5.20;;
7747;SDS011;3918;42.564;23.164;2023-02-23T09:48:41;9.65;;;5.05;;
7747;SDS011;3918;42.564;23.164;2023-02-23T09:51:09;9.77;;;4.95;;
7747;SDS011;3918;42.564;23.164;2023-02-23T09:53:43;18.73;;;5.30;;
7747;SDS011;3918;42.564;23.164;2023-02-23T09:56:16;7.47;;;4.25;;
7747;SDS011;3918;42.564;23.164;2023-02-23T09:58:48;9.15;;;4.50;;
7747;SDS011;3918;42.564;23.164;2023-02-23T10:01:30;9.25;;;5.15;;
7747;SDS011;3918;42.564;23.164;2023-02-23T10:04:11;22.40;;;5.30;;
7747;SDS011;3918;42.564;23.164;2023-02-23T10:06:44;23.50;;;5.13;;
7747;SDS011;3918;42.564;23.164;2023-02-23T10:09:19;14.35;;;5.28;;
7747;SDS011;3918;42.564;23.164;2023-02-23T10:11:54;8.70;;;4.82;;
7747;SDS011;3918;42.564;23.164;2023-02-23T10:14:44;36.85;;;6.25;;
7747;SDS011;3918;42.564;23.164;2023-02-23T10:17:31;37.00;;;5.72;;
7747;SDS011;3918;42.564;23.164;2023-02-23T10:20:06;13.00;;;5.40;;
7747;SDS011;3918;42.564;23.164;2023-02-23T10:22:43;18.60;;;5.25;;
7747;SDS011;3918;42.564;23.164;2023-02-23T10:25:14;8.70;;;5.10;;
7747;SDS011;3918;42.564;23.164;2023-02-23T10:27:46;23.77;;;6.15;;
7747;SDS011;3918;42.564;23.164;2023-02-23T10:30:17;20.13;;;5.70;;
7747;SDS011;3918;42.564;23.164;2023-02-23T10:32:49;18.73;;;6.53;;
7747;SDS011;3918;42.564;23.164;2023-02-23T10:35:20;19.80;;;4.63;;
7747;SDS011;3918;42.564;23.164;2023-02-23T10:37:48;13.75;;;5.50;;
7747;SDS011;3918;42.564;23.164;2023-02-23T10:40:18;23.65;;;7.68;;
7747;SDS011;3918;42.564;23.164;2023-02-23T10:42:47;33.60;;;7.97;;
7747;SDS011;3918;42.564;23.164;2023-02-23T10:45:17;25.60;;;7.38;;
7747;SDS011;3918;42.564;23.164;2023-02-23T10:47:54;28.33;;;7.95;;
7747;SDS011;3918;42.564;23.164;2023-02-23T10:50:24;20.20;;;6.88;;
7747;SDS011;3918;42.564;23.164;2023-02-23T10:52:54;21.17;;;6.47;;
7747;SDS011;3918;42.564;23.164;2023-02-23T10:55:26;30.88;;;7.55;;
7747;SDS011;3918;42.564;23.164;2023-02-23T10:58:00;24.27;;;6.82;;
7747;SDS011;3918;42.564;23.164;2023-02-23T11:00:29;20.83;;;6.45;;
7747;SDS011;3918;42.564;23.164;2023-02-23T11:03:00;19.30;;;6.68;;
7747;SDS011;3918;42.564;23.164;2023-02-23T11:05:33;23.35;;;6.45;;
7747;SDS011;3918;42.564;23.164;2023-02-23T11:08:16;18.90;;;5.72;;
7747;SDS011;3918;42.564;23.164;2023-02-23T11:10:55;25.43;;;7.63;;
7747;SDS011;3918;42.564;23.164;2023-02-23T11:13:37;28.02;;;6.85;;
7747;SDS011;3918;42.564;23.164;2023-02-23T11:16:07;20.75;;;6.40;;
7747;SDS011;3918;42.564;23.164;2023-02-23T11:18:39;17.20;;;5.80;;
7747;SDS011;3918;42.564;23.164;2023-02-23T11:21:12;22.13;;;6.15;;
7747;SDS011;3918;42.564;23.164;2023-02-23T11:23:47;18.65;;;6.55;;
7747;SDS011;3918;42.564;23.164;2023-02-23T11:26:24;19.83;;;6.57;;
7747;SDS011;3918;42.564;23.164;2023-02-23T11:28:57;13.90;;;5.75;;
7747;SDS011;3918;42.564;23.164;2023-02-23T11:31:29;13.18;;;5.75;;
7747;SDS011;3918;42.564;23.164;2023-02-23T11:34:00;13.75;;;5.50;;
7747;SDS011;3918;42.564;23.164;2023-02-23T11:36:29;14.63;;;5.22;;
7747;SDS011;3918;42.564;23.164;2023-02-23T11:39:06;27.73;;;5.00;;
7747;SDS011;3918;42.564;23.164;2023-02-23T11:41:46;7.38;;;3.53;;
7747;SDS011;3918;42.564;23.164;2023-02-23T11:44:28;12.90;;;3.70;;
7747;SDS011;3918;42.564;23.164;2023-02-23T11:46:55;11.68;;;3.97;;
7747;SDS011;3918;42.564;23.164;2023-02-23T11:49:27;14.13;;;4.38;;
7747;SDS011;3918;42.564;23.164;2023-02-23T11:51:59;6.68;;;3.17;;
7747;SDS011;3918;42.564;23.164;2023-02-23T11:54:26;13.35;;;3.90;;
7747;SDS011;3918;42.564;23.164;2023-02-23T11:56:55;7.88;;;3.60;;
7747;SDS011;3918;42.564;23.164;2023-02-23T11:59:27;5.72;;;3.72;;
7747;SDS011;3918;42.564;23.164;2023-02-23T12:01:58;23.23;;;4.28;;
7747;SDS011;3918;42.564;23.164;2023-02-23T12:04:32;6.88;;;2.85;;
7747;SDS011;3918;42.564;23.164;2023-02-23T12:07:18;7.03;;;2.70;;
7747;SDS011;3918;42.564;23.164;2023-02-23T12:10:00;6.63;;;2.53;;
7747;SDS011;3918;42.564;23.164;2023-02-23T12:12:34;6.72;;;3.10;;
7747;SDS011;3918;42.564;23.164;2023-02-23T12:15:19;7.05;;;3.17;;
7747;SDS011;3918;42.564;23.164;2023-02-23T12:17:52;10.23;;;3.72;;
7747;SDS011;3918;42.564;23.164;2023-02-23T12:20:24;8.27;;;2.88;;
7747;SDS011;3918;42.564;23.164;2023-02-23T12:22:55;4.85;;;3.05;;
7747;SDS011;3918;42.564;23.164;2023-02-23T12:25:25;10.82;;;3.63;;
7747;SDS011;3918;42.564;23.164;2023-02-23T12:27:58;4.30;;;3.00;;
7747;SDS011;3918;42.564;23.164;2023-02-23T12:30:35;6.65;;;3.08;;
7747;SDS011;3918;42.564;23.164;2023-02-23T12:33:09;4.07;;;2.75;;
7747;SDS011;3918;42.564;23.164;2023-02-23T12:35:43;12.75;;;3.50;;
7747;SDS011;3918;42.564;23.164;2023-02-23T12:38:19;9.93;;;3.35;;
7747;SDS011;3918;42.564;23.164;2023-02-23T12:40:52;4.68;;;3.30;;
7747;SDS011;3918;42.564;23.164;2023-02-23T12:43:25;4.10;;;3.20;;
7747;SDS011;3918;42.564;23.164;2023-02-23T12:46:02;8.45;;;3.08;;
7747;SDS011;3918;42.564;23.164;2023-02-23T12:48:34;8.30;;;3.40;;
7747;SDS011;3918;42.564;23.164;2023-02-23T12:51:13;4.35;;;2.90;;
7747;SDS011;3918;42.564;23.164;2023-02-23T12:53:46;4.00;;;2.90;;
7747;SDS011;3918;42.564;23.164;2023-02-23T12:56:18;36.25;;;5.28;;
7747;SDS011;3918;42.564;23.164;2023-02-23T12:58:54;19.05;;;4.30;;
7747;SDS011;3918;42.564;23.164;2023-02-23T13:01:30;10.43;;;3.70;;
7747;SDS011;3918;42.564;23.164;2023-02-23T13:07:03;15.48;;;5.75;;
7747;SDS011;3918;42.564;23.164;2023-02-23T13:09:41;32.45;;;6.60;;
7747;SDS011;3918;42.564;23.164;2023-02-23T13:12:24;20.27;;;5.20;;
7747;SDS011;3918;42.564;23.164;2023-02-23T13:15:03;13.73;;;5.10;;
7747;SDS011;3918;42.564;23.164;2023-02-23T13:17:45;9.93;;;4.63;;
7747;SDS011;3918;42.564;23.164;2023-02-23T13:20:19;15.90;;;5.10;;
7747;SDS011;3918;42.564;23.164;2023-02-23T13:22:55;24.63;;;5.28;;
7747;SDS011;3918;42.564;23.164;2023-02-23T13:25:33;11.07;;;4.43;;
7747;SDS011;3918;42.564;23.164;2023-02-23T13:28:07;24.60;;;5.32;;
7747;SDS011;3918;42.564;23.164;2023-02-23T13:30:43;14.57;;;5.18;;
7747;SDS011;3918;42.564;23.164;2023-02-23T13:33:23;11.55;;;5.47;;
7747;SDS011;3918;42.564;23.164;2023-02-23T13:35:52;7.95;;;4.90;;
7747;SDS011;3918;42.564;23.164;2023-02-23T13:38:24;19.85;;;5.88;;
7747;SDS011;3918;42.564;23.164;2023-02-23T13:41:02;12.82;;;5.03;;
7747;SDS011;3918;42.564;23.164;2023-02-23T13:43:38;7.20;;;4.05;;
7747;SDS011;3918;42.564;23.164;2023-02-23T13:46:14;13.00;;;5.20;;
7747;SDS011;3918;42.564;23.164;2023-02-23T13:48:52;13.52;;;4.97;;
7747;SDS011;3918;42.564;23.164;2023-02-23T13:51:25;7.13;;;4.30;;
7747;SDS011;3918;42.564;23.164;2023-02-23T13:54:04;6.20;;;4.05;;
7747;SDS011;3918;42.564;23.164;2023-02-23T13:56:47;12.98;;;4.68;;
7747;SDS011;3918;42.564;23.164;2023-02-23T13:59:18;12.27;;;5.30;;
7747;SDS011;3918;42.564;23.164;2023-02-23T14:01:47;7.90;;;4.25;;
7747;SDS011;3918;42.564;23.164;2023-02-23T14:04:20;5.80;;;4.07;;
7747;SDS011;3918;42.564;23.164;2023-02-23T14:06:50;9.85;;;4.10;;
7747;SDS011;3918;42.564;23.164;2023-02-23T14:09:23;6.15;;;4.40;;
7747;SDS011;3918;42.564;23.164;2023-02-23T14:11:57;83.75;;;10.20;;
7747;SDS011;3918;42.564;23.164;2023-02-23T14:14:40;21.27;;;6.20;;
7747;SDS011;3918;42.564;23.164;2023-02-23T14:20:23;9.57;;;4.43;;
7747;SDS011;3918;42.564;23.164;2023-02-23T14:23:13;18.70;;;5.53;;
7747;SDS011;3918;42.564;23.164;2023-02-23T14:25:44;13.52;;;4.10;;
7747;SDS011;3918;42.564;23.164;2023-02-23T14:28:21;8.48;;;4.20;;
7747;SDS011;3918;42.564;23.164;2023-02-23T14:30:58;15.45;;;4.50;;
7747;SDS011;3918;42.564;23.164;2023-02-23T14:33:35;12.18;;;6.65;;
7747;SDS011;3918;42.564;23.164;2023-02-23T14:36:33;7.25;;;4.57;;
7747;SDS011;3918;42.564;23.164;2023-02-23T14:39:02;6.22;;;4.05;;
7747;SDS011;3918;42.564;23.164;2023-02-23T14:41:37;14.77;;;5.10;;
7747;SDS011;3918;42.564;23.164;2023-02-23T14:44:11;6.03;;;3.80;;
7747;SDS011;3918;42.564;23.164;2023-02-23T14:46:46;8.30;;;4.03;;
7747;SDS011;3918;42.564;23.164;2023-02-23T14:49:17;8.20;;;4.80;;
7747;SDS011;3918;42.564;23.164;2023-02-23T14:51:45;24.90;;;5.25;;
7747;SDS011;3918;42.564;23.164;2023-02-23T14:54:25;9.40;;;4.25;;
7747;SDS011;3918;42.564;23.164;2023-02-23T14:56:57;24.02;;;5.25;;
7747;SDS011;3918;42.564;23.164;2023-02-23T14:59:26;13.43;;;5.25;;
7747;SDS011;3918;42.564;23.164;2023-02-23T15:01:55;9.80;;;5.00;;
7747;SDS011;3918;42.564;23.164;2023-02-23T15:04:27;21.45;;;5.28;;
7747;SDS011;3918;42.564;23.164;2023-02-23T15:06:57;15.63;;;4.55;;
7747;SDS011;3918;42.564;23.164;2023-02-23T15:09:29;9.73;;;4.38;;
7747;SDS011;3918;42.564;23.164;2023-02-23T15:12:05;48.58;;;7.40;;
7747;SDS011;3918;42.564;23.164;2023-02-23T15:14:37;31.17;;;5.60;;
7747;SDS011;3918;42.564;23.164;2023-02-23T15:17:08;7.68;;;4.13;;
7747;SDS011;3918;42.564;23.164;2023-02-23T15:19:39;4.38;;;3.97;;
7747;SDS011;3918;42.564;23.164;2023-02-23T15:22:06;5.68;;;3.47;;
7747;SDS011;3918;42.564;23.164;2023-02-23T15:24:39;18.77;;;4.07;;
7747;SDS011;3918;42.564;23.164;2023-02-23T15:27:17;4.22;;;3.25;;
7747;SDS011;3918;42.564;23.164;2023-02-23T15:29:46;5.70;;;3.55;;
7747;SDS011;3918;42.564;23.164;2023-02-23T15:32:16;8.38;;;3.53;;
7747;SDS011;3918;42.564;23.164;2023-02-23T15:34:45;6.15;;;3.40;;
7747;SDS011;3918;42.564;23.164;2023-02-23T15:37:14;5.75;;;3.55;;